Adamant, VT

12:06 PM EDT on August 31, 2015 (GMT -0400)
Goddard College | | Change Station
CLOSE
Current Station
Personal Weather Station
Location: Plainfield, VT
Elevation: 814 ft
Nearby Weather Stations

Elev 814 ft 44.28 °N, 72.44 °W | Updated 7 minutes ago

Overcast
Overcast
78.1 °F
Feels Like 80 °F
N
3.2
Wind Variable Wind from WNW

Today
High -- | Low -- °F
--% Chance of Precip.
Yesterday
High -- | Low -- °F
Precip. -- in
6:11 AM 7:28 PM
Waning Gibbous, 95% visible
Pressure 29.98 in
Visibility 10.0 miles
Clouds Scattered Clouds 3900 ft
Mostly Cloudy 4900 ft
Heat Index 80 °F
Dew Point 67 °F
Humidity 68%
Rainfall 0.00 in
Snow Depth Not available.
UV 5 out of 12
Pollen 8.80 out of 12
Air Quality Not available.
Flu Activity Not available.
METAR KMPV 311551Z AUTO 26008G20KT 10SM SCT039 BKN049 24/16 A2999 RMK AO2 SLP150 T02440161
Pressure 29.98 in
Visibility 10.0 miles
Clouds Scattered Clouds 3900 ft
Mostly Cloudy 4900 ft
Heat Index 80 °F
Dew Point 67 °F
Humidity 68%
Rainfall 0.00 in
Snow Depth Not available.
UV 5 out of 12
Pollen 8.80 out of 12
Air Quality Not available.
Flu Activity Not available.
METAR KMPV 311551Z AUTO 26008G20KT 10SM SCT039 BKN049 24/16 A2999 RMK AO2 SLP150 T02440161

10-Day Weather Forecast

×

Almanac

Astronomy

Aug. 31, 2015 Rise Set
Actual Time
Civil Twilight
Nautical Twilight
Astronomical Twilight
Moon
Length of Visible Light
Length of Day
Tomorrow will be .
, % of the Moon is Illuminated

Today's Extremes

State Highs State Lows

Community

WunderPhotos

Upload Photos

1,851,298 photos uploaded!

WunderBlogs® & News

Nearby

Air Quality

  Air Quality AQ Index Pollutant
Not available.

Snow Depth

Station Depth Elevation

Earthquake Activity

City Distance Mag. Time & Date
Minimum magnitude displayed is 2.5.

Coastal Water Temperatures

Place Temperature

Stations

Nearby Weather Stations

Station Location Temp. Windchill Dew Point Humidity Wind Precip. Elev Updated Type